sensor_id;sensor_type;location;lat;lon;timestamp;pressure;altitude;pressure_sealevel;temperature;humidity
55068;BME280;40965;52.368;9.712;2023-01-27T00:01:18;101596.59;;;1.19;100.00
55068;BME280;40965;52.368;9.712;2023-01-27T00:03:44;101589.81;;;1.21;100.00
55068;BME280;40965;52.368;9.712;2023-01-27T00:06:11;101588.94;;;1.20;100.00
55068;BME280;40965;52.368;9.712;2023-01-27T00:08:38;101583.78;;;1.20;100.00
55068;BME280;40965;52.368;9.712;2023-01-27T00:11:04;101582.06;;;1.21;100.00
55068;BME280;40965;52.368;9.712;2023-01-27T00:13:48;101584.72;;;1.22;100.00
55068;BME280;40965;52.368;9.712;2023-01-27T00:16:15;101582.94;;;1.21;100.00
55068;BME280;40965;52.368;9.712;2023-01-27T00:18:41;101575.22;;;1.21;100.00
55068;BME280;40965;52.368;9.712;2023-01-27T00:21:08;101575.31;;;1.23;100.00
55068;BME280;40965;52.368;9.712;2023-01-27T00:23:52;101578.75;;;1.23;100.00
55068;BME280;40965;52.368;9.712;2023-01-27T00:26:36;101571.00;;;1.23;100.00
55068;BME280;40965;52.368;9.712;2023-01-27T00:29:02;101573.66;;;1.25;100.00
55068;BME280;40965;52.368;9.712;2023-01-27T00:31:29;101572.72;;;1.23;100.00
55068;BME280;40965;52.368;9.712;2023-01-27T00:34:13;101566.66;;;1.22;100.00
55068;BME280;40965;52.368;9.712;2023-01-27T00:36:41;101567.63;;;1.24;100.00
55068;BME280;40965;52.368;9.712;2023-01-27T00:39:09;101559.09;;;1.25;100.00
55068;BME280;40965;52.368;9.712;2023-01-27T00:41:38;101569.47;;;1.27;100.00
55068;BME280;40965;52.368;9.712;2023-01-27T00:44:06;101575.47;;;1.27;100.00
55068;BME280;40965;52.368;9.712;2023-01-27T00:46:36;101578.06;;;1.27;100.00
55068;BME280;40965;52.368;9.712;2023-01-27T00:49:03;101581.53;;;1.28;100.00
55068;BME280;40965;52.368;9.712;2023-01-27T00:51:30;101586.81;;;1.31;100.00
55068;BME280;40965;52.368;9.712;2023-01-27T00:53:56;101581.66;;;1.31;100.00
55068;BME280;40965;52.368;9.712;2023-01-27T00:56:23;101580.88;;;1.32;100.00
55068;BME280;40965;52.368;9.712;2023-01-27T00:58:51;101587.84;;;1.35;100.00
55068;BME280;40965;52.368;9.712;2023-01-27T01:01:17;101593.75;;;1.32;100.00
55068;BME280;40965;52.368;9.712;2023-01-27T01:03:44;101600.00;;;1.37;100.00
55068;BME280;40965;52.368;9.712;2023-01-27T01:06:13;101600.00;;;1.37;100.00
55068;BME280;40965;52.368;9.712;2023-01-27T01:08:41;101603.50;;;1.39;100.00
55068;BME280;40965;52.368;9.712;2023-01-27T01:11:11;101607.13;;;1.43;100.00
55068;BME280;40965;52.368;9.712;2023-01-27T01:13:40;101603.78;;;1.45;100.00
55068;BME280;40965;52.368;9.712;2023-01-27T01:16:11;101613.31;;;1.46;100.00
55068;BME280;40965;52.368;9.712;2023-01-27T01:18:39;101610.78;;;1.48;100.00
55068;BME280;40965;52.368;9.712;2023-01-27T01:21:07;101611.75;;;1.50;100.00
55068;BME280;40965;52.368;9.712;2023-01-27T01:23:36;101614.38;;;1.52;100.00
55068;BME280;40965;52.368;9.712;2023-01-27T01:26:04;101609.34;;;1.55;100.00
55068;BME280;40965;52.368;9.712;2023-01-27T01:28:31;101615.31;;;1.54;100.00
55068;BME280;40965;52.368;9.712;2023-01-27T01:31:10;101626.59;;;1.56;100.00
55068;BME280;40965;52.368;9.712;2023-01-27T01:33:37;101617.16;;;1.56;100.00
55068;BME280;40965;52.368;9.712;2023-01-27T01:36:10;101612.88;;;1.57;100.00
55068;BME280;40965;52.368;9.712;2023-01-27T01:38:38;101613.69;;;1.56;100.00
55068;BME280;40965;52.368;9.712;2023-01-27T01:41:07;101620.69;;;1.58;100.00
55068;BME280;40965;52.368;9.712;2023-01-27T01:43:36;101621.50;;;1.57;100.00
55068;BME280;40965;52.368;9.712;2023-01-27T01:46:03;101616.41;;;1.59;100.00
55068;BME280;40965;52.368;9.712;2023-01-27T01:48:38;101625.03;;;1.59;100.00
55068;BME280;40965;52.368;9.712;2023-01-27T01:51:34;101623.34;;;1.60;100.00
55068;BME280;40965;52.368;9.712;2023-01-27T01:56:53;101625.97;;;1.61;100.00
55068;BME280;40965;52.368;9.712;2023-01-27T01:59:25;101620.81;;;1.61;100.00
55068;BME280;40965;52.368;9.712;2023-01-27T02:01:56;101628.63;;;1.63;100.00
55068;BME280;40965;52.368;9.712;2023-01-27T02:04:26;101630.38;;;1.64;100.00
55068;BME280;40965;52.368;9.712;2023-01-27T02:07:00;101622.72;;;1.65;100.00
55068;BME280;40965;52.368;9.712;2023-01-27T02:09:32;101626.13;;;1.64;100.00
55068;BME280;40965;52.368;9.712;2023-01-27T02:11:59;101625.28;;;1.65;100.00
55068;BME280;40965;52.368;9.712;2023-01-27T02:14:26;101627.00;;;1.65;100.00
55068;BME280;40965;52.368;9.712;2023-01-27T02:16:53;101629.56;;;1.65;100.00
55068;BME280;40965;52.368;9.712;2023-01-27T02:19:25;101627.97;;;1.67;100.00
55068;BME280;40965;52.368;9.712;2023-01-27T02:21:58;101625.38;;;1.67;100.00
55068;BME280;40965;52.368;9.712;2023-01-27T02:24:34;101633.19;;;1.69;100.00
55068;BME280;40965;52.368;9.712;2023-01-27T02:27:04;101627.13;;;1.68;100.00
55068;BME280;40965;52.368;9.712;2023-01-27T02:29:31;101618.63;;;1.71;100.00
55068;BME280;40965;52.368;9.712;2023-01-27T02:31:57;101629.03;;;1.72;100.00
55068;BME280;40965;52.368;9.712;2023-01-27T02:34:27;101622.16;;;1.73;100.00
55068;BME280;40965;52.368;9.712;2023-01-27T02:36:58;101623.03;;;1.73;100.00
55068;BME280;40965;52.368;9.712;2023-01-27T02:39:33;101620.47;;;1.73;100.00
55068;BME280;40965;52.368;9.712;2023-01-27T02:42:05;101612.81;;;1.75;100.00
55068;BME280;40965;52.368;9.712;2023-01-27T02:44:32;101615.38;;;1.75;100.00
55068;BME280;40965;52.368;9.712;2023-01-27T02:46:59;101613.66;;;1.75;100.00
55068;BME280;40965;52.368;9.712;2023-01-27T02:49:26;101609.38;;;1.76;100.00
55068;BME280;40965;52.368;9.712;2023-01-27T02:51:52;101622.38;;;1.77;100.00
55068;BME280;40965;52.368;9.712;2023-01-27T02:54:18;101627.53;;;1.77;100.00
55068;BME280;40965;52.368;9.712;2023-01-27T02:56:46;101625.06;;;1.80;100.00
55068;BME280;40965;52.368;9.712;2023-01-27T02:59:13;101631.09;;;1.81;100.00
55068;BME280;40965;52.368;9.712;2023-01-27T03:01:39;101643.97;;;1.79;100.00
55068;BME280;40965;52.368;9.712;2023-01-27T03:04:06;101635.41;;;1.80;100.00
55068;BME280;40965;52.368;9.712;2023-01-27T03:06:33;101639.75;;;1.81;100.00
55068;BME280;40965;52.368;9.712;2023-01-27T03:08:59;101638.94;;;1.83;100.00
55068;BME280;40965;52.368;9.712;2023-01-27T03:11:26;101638.16;;;1.85;100.00
55068;BME280;40965;52.368;9.712;2023-01-27T03:14:10;101638.16;;;1.85;100.00
55068;BME280;40965;52.368;9.712;2023-01-27T03:16:42;101640.00;;;1.88;100.00
55068;BME280;40965;52.368;9.712;2023-01-27T03:19:26;101646.06;;;1.88;100.00
55068;BME280;40965;52.368;9.712;2023-01-27T03:21:53;101642.56;;;1.88;100.00
55068;BME280;40965;52.368;9.712;2023-01-27T03:24:20;101646.13;;;1.90;100.00
55068;BME280;40965;52.368;9.712;2023-01-27T03:26:47;101647.00;;;1.90;100.00
55068;BME280;40965;52.368;9.712;2023-01-27T03:29:14;101644.50;;;1.92;100.00
55068;BME280;40965;52.368;9.712;2023-01-27T03:31:58;101642.03;;;1.95;100.00
55068;BME280;40965;52.368;9.712;2023-01-27T03:34:24;101641.22;;;1.96;100.00
55068;BME280;40965;52.368;9.712;2023-01-27T03:36:51;101640.47;;;1.98;100.00
55068;BME280;40965;52.368;9.712;2023-01-27T03:39:35;101639.56;;;1.98;100.00
55068;BME280;40965;52.368;9.712;2023-01-27T03:42:19;101644.81;;;2.00;100.00
55068;BME280;40965;52.368;9.712;2023-01-27T03:45:04;101643.91;;;1.99;100.00
55068;BME280;40965;52.368;9.712;2023-01-27T03:47:48;101652.56;;;2.00;100.00
55068;BME280;40965;52.368;9.712;2023-01-27T03:50:15;101641.41;;;2.01;100.00
55068;BME280;40965;52.368;9.712;2023-01-27T03:52:49;101643.97;;;2.01;100.00
55068;BME280;40965;52.368;9.712;2023-01-27T03:55:29;101638.81;;;2.01;100.00
55068;BME280;40965;52.368;9.712;2023-01-27T03:57:56;101646.66;;;2.02;100.00
55068;BME280;40965;52.368;9.712;2023-01-27T04:00:30;101650.97;;;2.03;100.00
55068;BME280;40965;52.368;9.712;2023-01-27T04:02:56;101653.50;;;2.02;100.00
55068;BME280;40965;52.368;9.712;2023-01-27T04:05:40;101651.81;;;2.02;100.00
55068;BME280;40965;52.368;9.712;2023-01-27T04:08:24;101647.53;;;2.03;100.00
55068;BME280;40965;52.368;9.712;2023-01-27T04:10:51;101652.75;;;2.04;100.00
55068;BME280;40965;52.368;9.712;2023-01-27T04:13:31;101647.63;;;2.06;100.00
55068;BME280;40965;52.368;9.712;2023-01-27T04:15:58;101648.53;;;2.06;100.00
55068;BME280;40965;52.368;9.712;2023-01-27T04:18:25;101654.56;;;2.07;100.00
55068;BME280;40965;52.368;9.712;2023-01-27T04:20:51;101650.22;;;2.06;100.00
55068;BME280;40965;52.368;9.712;2023-01-27T04:23:18;101650.22;;;2.06;100.00
55068;BME280;40965;52.368;9.712;2023-01-27T04:25:44;101658.13;;;2.09;100.00
55068;BME280;40965;52.368;9.712;2023-01-27T04:28:11;101660.72;;;2.09;100.00
55068;BME280;40965;52.368;9.712;2023-01-27T04:30:37;101659.00;;;2.09;100.00
55068;BME280;40965;52.368;9.712;2023-01-27T04:33:04;101670.19;;;2.10;100.00
55068;BME280;40965;52.368;9.712;2023-01-27T04:35:34;101670.19;;;2.10;100.00
55068;BME280;40965;52.368;9.712;2023-01-27T04:38:01;101673.69;;;2.10;100.00
55068;BME280;40965;52.368;9.712;2023-01-27T04:40:27;101671.97;;;2.11;100.00
55068;BME280;40965;52.368;9.712;2023-01-27T04:42:54;101677.19;;;2.12;100.00
55068;BME280;40965;52.368;9.712;2023-01-27T04:45:20;101670.47;;;2.16;100.00
55068;BME280;40965;52.368;9.712;2023-01-27T04:47:47;101679.97;;;2.17;100.00
55068;BME280;40965;52.368;9.712;2023-01-27T04:50:13;101686.00;;;2.18;100.00
55068;BME280;40965;52.368;9.712;2023-01-27T04:52:40;101674.88;;;2.19;100.00
55068;BME280;40965;52.368;9.712;2023-01-27T04:55:07;101677.50;;;2.20;100.00
55068;BME280;40965;52.368;9.712;2023-01-27T04:57:33;101686.22;;;2.22;100.00
55068;BME280;40965;52.368;9.712;2023-01-27T05:00:00;101691.38;;;2.22;100.00
55068;BME280;40965;52.368;9.712;2023-01-27T05:02:27;101687.94;;;2.22;100.00
55068;BME280;40965;52.368;9.712;2023-01-27T05:04:54;101690.56;;;2.23;100.00
55068;BME280;40965;52.368;9.712;2023-01-27T05:07:20;101687.19;;;2.24;100.00
55068;BME280;40965;52.368;9.712;2023-01-27T05:09:47;101685.53;;;2.26;100.00
55068;BME280;40965;52.368;9.712;2023-01-27T05:12:15;101703.63;;;2.26;100.00
55068;BME280;40965;52.368;9.712;2023-01-27T05:14:42;101701.94;;;2.27;100.00
55068;BME280;40965;52.368;9.712;2023-01-27T05:17:08;101700.22;;;2.27;100.00
55068;BME280;40965;52.368;9.712;2023-01-27T05:19:35;101696.75;;;2.27;100.00
55068;BME280;40965;52.368;9.712;2023-01-27T05:22:01;101707.28;;;2.31;100.00
55068;BME280;40965;52.368;9.712;2023-01-27T05:24:28;101704.63;;;2.30;100.00
55068;BME280;40965;52.368;9.712;2023-01-27T05:26:54;101706.34;;;2.29;100.00
55068;BME280;40965;52.368;9.712;2023-01-27T05:29:22;101709.00;;;2.31;100.00
55068;BME280;40965;52.368;9.712;2023-01-27T05:31:48;101712.44;;;2.31;100.00
55068;BME280;40965;52.368;9.712;2023-01-27T05:34:15;101712.50;;;2.33;100.00
55068;BME280;40965;52.368;9.712;2023-01-27T05:36:42;101716.91;;;2.36;100.00
55068;BME280;40965;52.368;9.712;2023-01-27T05:39:09;101716.91;;;2.36;100.00
55068;BME280;40965;52.368;9.712;2023-01-27T05:41:36;101721.22;;;2.35;100.00
55068;BME280;40965;52.368;9.712;2023-01-27T05:44:04;101718.63;;;2.35;100.00
55068;BME280;40965;52.368;9.712;2023-01-27T05:46:31;101722.97;;;2.36;100.00
55068;BME280;40965;52.368;9.712;2023-01-27T05:49:00;101724.66;;;2.36;100.00
55068;BME280;40965;52.368;9.712;2023-01-27T05:51:34;101723.78;;;2.35;100.00
55068;BME280;40965;52.368;9.712;2023-01-27T05:54:03;101731.66;;;2.38;100.00
55068;BME280;40965;52.368;9.712;2023-01-27T05:56:31;101734.25;;;2.38;100.00
55068;BME280;40965;52.368;9.712;2023-01-27T05:58:59;101734.19;;;2.37;100.00
55068;BME280;40965;52.368;9.712;2023-01-27T06:01:31;101743.66;;;2.36;100.00
55068;BME280;40965;52.368;9.712;2023-01-27T06:03:59;101741.94;;;2.37;100.00
55068;BME280;40965;52.368;9.712;2023-01-27T06:06:27;101746.41;;;2.41;100.00
55068;BME280;40965;52.368;9.712;2023-01-27T06:08:54;101753.28;;;2.40;100.00
55068;BME280;40965;52.368;9.712;2023-01-27T06:11:21;101754.09;;;2.39;100.00
55068;BME280;40965;52.368;9.712;2023-01-27T06:13:50;101753.28;;;2.40;100.00
55068;BME280;40965;52.368;9.712;2023-01-27T06:16:18;101749.81;;;2.40;100.00
55068;BME280;40965;52.368;9.712;2023-01-27T06:18:47;101750.72;;;2.40;100.00
55068;BME280;40965;52.368;9.712;2023-01-27T06:21:14;101754.31;;;2.44;100.00
55068;BME280;40965;52.368;9.712;2023-01-27T06:23:41;101743.97;;;2.44;100.00
55068;BME280;40965;52.368;9.712;2023-01-27T06:26:12;101746.56;;;2.44;100.00
55068;BME280;40965;52.368;9.712;2023-01-27T06:28:41;101749.97;;;2.43;100.00
55068;BME280;40965;52.368;9.712;2023-01-27T06:31:13;101752.59;;;2.44;100.00
55068;BME280;40965;52.368;9.712;2023-01-27T06:33:42;101744.22;;;2.50;100.00
55068;BME280;40965;52.368;9.712;2023-01-27T06:36:11;101747.56;;;2.47;100.00
55068;BME280;40965;52.368;9.712;2023-01-27T06:38:40;101753.47;;;2.45;100.00
55068;BME280;40965;52.368;9.712;2023-01-27T06:41:10;101762.13;;;2.45;100.00
55068;BME280;40965;52.368;9.712;2023-01-27T06:43:37;101755.13;;;2.43;100.00
55068;BME280;40965;52.368;9.712;2023-01-27T06:46:05;101752.53;;;2.43;100.00
55068;BME280;40965;52.368;9.712;2023-01-27T06:48:33;101762.94;;;2.44;100.00
55068;BME280;40965;52.368;9.712;2023-01-27T06:51:01;101762.06;;;2.44;100.00
55068;BME280;40965;52.368;9.712;2023-01-27T06:53:29;101760.34;;;2.44;100.00
55068;BME280;40965;52.368;9.712;2023-01-27T06:56:00;101765.53;;;2.44;100.00
55068;BME280;40965;52.368;9.712;2023-01-27T06:58:27;101774.03;;;2.42;100.00
55068;BME280;40965;52.368;9.712;2023-01-27T07:00:55;101774.84;;;2.41;100.00
55068;BME280;40965;52.368;9.712;2023-01-27T07:03:21;101778.25;;;2.40;100.00
55068;BME280;40965;52.368;9.712;2023-01-27T07:05:48;101780.81;;;2.40;100.00
55068;BME280;40965;52.368;9.712;2023-01-27T07:08:15;101782.53;;;2.39;100.00
55068;BME280;40965;52.368;9.712;2023-01-27T07:10:41;101779.09;;;2.39;100.00
55068;BME280;40965;52.368;9.712;2023-01-27T07:13:10;101788.41;;;2.35;100.00
55068;BME280;40965;52.368;9.712;2023-01-27T07:15:38;101797.03;;;2.36;100.00
55068;BME280;40965;52.368;9.712;2023-01-27T07:18:05;101792.53;;;2.31;100.00
55068;BME280;40965;52.368;9.712;2023-01-27T07:20:32;101796.84;;;2.31;100.00
55068;BME280;40965;52.368;9.712;2023-01-27T07:23:00;101801.31;;;2.35;100.00
55068;BME280;40965;52.368;9.712;2023-01-27T07:25:28;101806.44;;;2.34;100.00
55068;BME280;40965;52.368;9.712;2023-01-27T07:27:56;101802.75;;;2.28;100.00
55068;BME280;40965;52.368;9.712;2023-01-27T07:30:24;101813.97;;;2.29;100.00
55068;BME280;40965;52.368;9.712;2023-01-27T07:32:51;101814.72;;;2.26;100.00
55068;BME280;40965;52.368;9.712;2023-01-27T07:35:20;101822.47;;;2.26;100.00
55068;BME280;40965;52.368;9.712;2023-01-27T07:37:47;101818.09;;;2.25;100.00
55068;BME280;40965;52.368;9.712;2023-01-27T07:40:13;101826.69;;;2.24;100.00
55068;BME280;40965;52.368;9.712;2023-01-27T07:42:40;101824.03;;;2.23;100.00
55068;BME280;40965;52.368;9.712;2023-01-27T07:45:07;101819.00;;;2.26;100.00
55068;BME280;40965;52.368;9.712;2023-01-27T07:47:35;101826.00;;;2.28;100.00
55068;BME280;40965;52.368;9.712;2023-01-27T07:50:02;101831.13;;;2.27;100.00
55068;BME280;40965;52.368;9.712;2023-01-27T07:52:28;101833.59;;;2.25;100.00
55068;BME280;40965;52.368;9.712;2023-01-27T07:54:56;101839.75;;;2.27;100.00
55068;BME280;40965;52.368;9.712;2023-01-27T07:57:23;101844.97;;;2.29;100.00
55068;BME280;40965;52.368;9.712;2023-01-27T07:59:50;101846.69;;;2.28;100.00
55068;BME280;40965;52.368;9.712;2023-01-27T08:02:19;101850.19;;;2.30;100.00
55068;BME280;40965;52.368;9.712;2023-01-27T08:04:50;101845.94;;;2.31;100.00
55068;BME280;40965;52.368;9.712;2023-01-27T08:07:17;101849.38;;;2.31;100.00
55068;BME280;40965;52.368;9.712;2023-01-27T08:09:43;101853.81;;;2.34;100.00
55068;BME280;40965;52.368;9.712;2023-01-27T08:12:10;101857.25;;;2.35;100.00
55068;BME280;40965;52.368;9.712;2023-01-27T08:14:38;101864.38;;;2.39;100.00
55068;BME280;40965;52.368;9.712;2023-01-27T08:17:05;101864.53;;;2.43;100.00
55068;BME280;40965;52.368;9.712;2023-01-27T08:19:31;101872.50;;;2.48;100.00
55068;BME280;40965;52.368;9.712;2023-01-27T08:21:59;101866.66;;;2.52;100.00
55068;BME280;40965;52.368;9.712;2023-01-27T08:24:26;101867.53;;;2.53;100.00
55068;BME280;40965;52.368;9.712;2023-01-27T08:26:52;101881.19;;;2.50;100.00
55068;BME280;40965;52.368;9.712;2023-01-27T08:29:19;101882.97;;;2.51;100.00
55068;BME280;40965;52.368;9.712;2023-01-27T08:31:45;101882.22;;;2.54;100.00
55068;BME280;40965;52.368;9.712;2023-01-27T08:34:11;101882.50;;;2.60;100.00
55068;BME280;40965;52.368;9.712;2023-01-27T08:36:39;101886.88;;;2.61;100.00
55068;BME280;40965;52.368;9.712;2023-01-27T08:39:08;101883.31;;;2.59;100.00
55068;BME280;40965;52.368;9.712;2023-01-27T08:41:35;101889.22;;;2.56;100.00
55068;BME280;40965;52.368;9.712;2023-01-27T08:44:02;101890.94;;;2.56;100.00
55068;BME280;40965;52.368;9.712;2023-01-27T08:46:29;101894.28;;;2.53;100.00
55068;BME280;40965;52.368;9.712;2023-01-27T08:48:56;101898.47;;;2.51;100.00
55068;BME280;40965;52.368;9.712;2023-01-27T08:51:23;101897.56;;;2.49;100.00
55068;BME280;40965;52.368;9.712;2023-01-27T08:53:50;101901.97;;;2.52;100.00
55068;BME280;40965;52.368;9.712;2023-01-27T08:56:16;101902.84;;;2.52;100.00
55068;BME280;40965;52.368;9.712;2023-01-27T08:58:43;101901.19;;;2.54;100.00
55068;BME280;40965;52.368;9.712;2023-01-27T09:01:12;101901.34;;;2.57;100.00
55068;BME280;40965;52.368;9.712;2023-01-27T09:03:38;101911.06;;;2.63;100.00
55068;BME280;40965;52.368;9.712;2023-01-27T09:06:07;101908.41;;;2.61;100.00
55068;BME280;40965;52.368;9.712;2023-01-27T09:08:35;101914.47;;;2.62;100.00
55068;BME280;40965;52.368;9.712;2023-01-27T09:11:22;101911.13;;;2.64;100.00
55068;BME280;40965;52.368;9.712;2023-01-27T09:13:49;101923.31;;;2.67;100.00
55068;BME280;40965;52.368;9.712;2023-01-27T09:16:18;101920.53;;;2.62;100.00
55068;BME280;40965;52.368;9.712;2023-01-27T09:18:44;101923.94;;;2.61;100.00
55068;BME280;40965;52.368;9.712;2023-01-27T09:21:11;101920.72;;;2.67;100.00
55068;BME280;40965;52.368;9.712;2023-01-27T09:23:38;101924.91;;;2.63;100.00
55068;BME280;40965;52.368;9.712;2023-01-27T09:26:04;101923.94;;;2.61;100.00
55068;BME280;40965;52.368;9.712;2023-01-27T09:28:31;101930.06;;;2.63;100.00
55068;BME280;40965;52.368;9.712;2023-01-27T09:30:58;101924.38;;;2.72;100.00
55068;BME280;40965;52.368;9.712;2023-01-27T09:33:25;101926.63;;;2.84;100.00
55068;BME280;40965;52.368;9.712;2023-01-27T09:35:58;101937.06;;;2.86;100.00
55068;BME280;40965;52.368;9.712;2023-01-27T09:38:30;101933.50;;;2.84;100.00
55068;BME280;40965;52.368;9.712;2023-01-27T09:44:17;101932.53;;;2.81;100.00
55068;BME280;40965;52.368;9.712;2023-01-27T09:47:22;101936.78;;;2.79;100.00
55068;BME280;40965;52.368;9.712;2023-01-27T09:53:18;101933.38;;;2.80;100.00
55068;BME280;40965;52.368;9.712;2023-01-27T09:55:58;101928.13;;;2.79;100.00
55068;BME280;40965;52.368;9.712;2023-01-27T10:01:55;101937.06;;;2.86;100.00
55068;BME280;40965;52.368;9.712;2023-01-27T10:11:15;101934.44;;;3.05;100.00
55068;BME280;40965;52.368;9.712;2023-01-27T10:16:47;101938.50;;;3.20;100.00
55068;BME280;40965;52.368;9.712;2023-01-27T10:19:44;101932.50;;;3.21;100.00
55068;BME280;40965;52.368;9.712;2023-01-27T10:22:55;101918.59;;;3.19;100.00
55068;BME280;40965;52.368;9.712;2023-01-27T10:25:55;101925.34;;;3.15;100.00
55068;BME280;40965;52.368;9.712;2023-01-27T10:28:36;101928.75;;;3.14;100.00
55068;BME280;40965;52.368;9.712;2023-01-27T10:31:12;101922.00;;;3.18;100.00
55068;BME280;40965;52.368;9.712;2023-01-27T10:33:54;101917.47;;;3.12;100.00
55068;BME280;40965;52.368;9.712;2023-01-27T10:36:41;101926.09;;;3.12;100.00
55068;BME280;40965;52.368;9.712;2023-01-27T10:39:26;101935.53;;;3.10;100.00
55068;BME280;40965;52.368;9.712;2023-01-27T10:42:19;101939.72;;;3.08;100.00
55068;BME280;40965;52.368;9.712;2023-01-27T10:45:15;101942.31;;;3.08;100.00
55068;BME280;40965;52.368;9.712;2023-01-27T10:48:10;101946.53;;;3.06;100.00
55068;BME280;40965;52.368;9.712;2023-01-27T10:50:59;101945.72;;;3.07;100.00
55068;BME280;40965;52.368;9.712;2023-01-27T10:56:21;101943.50;;;2.95;100.00
55068;BME280;40965;52.368;9.712;2023-01-27T10:59:04;101945.28;;;2.96;100.00
55068;BME280;40965;52.368;9.712;2023-01-27T11:01:43;101954.81;;;2.97;100.00
55068;BME280;40965;52.368;9.712;2023-01-27T11:04:13;101958.00;;;2.92;100.00
55068;BME280;40965;52.368;9.712;2023-01-27T11:06:45;101957.00;;;2.88;100.00
55068;BME280;40965;52.368;9.712;2023-01-27T11:09:30;101954.59;;;2.93;100.00
55068;BME280;40965;52.368;9.712;2023-01-27T11:12:02;101957.19;;;2.93;100.00
55068;BME280;40965;52.368;9.712;2023-01-27T11:14:40;101956.38;;;2.94;100.00
55068;BME280;40965;52.368;9.712;2023-01-27T11:17:30;101952.75;;;2.90;100.00
55068;BME280;40965;52.368;9.712;2023-01-27T11:20:08;101950.09;;;2.89;100.00
55068;BME280;40965;52.368;9.712;2023-01-27T11:25:46;101948.50;;;2.91;100.00
55068;BME280;40965;52.368;9.712;2023-01-27T11:28:39;101946.16;;;2.97;100.00
55068;BME280;40965;52.368;9.712;2023-01-27T11:34:17;101938.16;;;3.12;100.00
55068;BME280;40965;52.368;9.712;2023-01-27T11:36:54;101944.28;;;3.14;100.00
55068;BME280;40965;52.368;9.712;2023-01-27T11:39:20;101955.25;;;3.08;100.00
55068;BME280;40965;52.368;9.712;2023-01-27T11:41:53;101953.47;;;3.07;100.00
55068;BME280;40965;52.368;9.712;2023-01-27T11:44:27;101954.13;;;3.02;100.00
55068;BME280;40965;52.368;9.712;2023-01-27T11:46:58;101950.72;;;3.03;100.00
55068;BME280;40965;52.368;9.712;2023-01-27T11:49:30;101951.38;;;2.98;100.00
55068;BME280;40965;52.368;9.712;2023-01-27T11:52:20;101946.09;;;2.95;100.00
55068;BME280;40965;52.368;9.712;2023-01-27T11:57:52;101945.91;;;2.91;100.00
55068;BME280;40965;52.368;9.712;2023-01-27T12:00:25;101940.56;;;2.88;100.00
55068;BME280;40965;52.368;9.712;2023-01-27T12:03:26;101940.78;;;2.92;100.00
55068;BME280;40965;52.368;9.712;2023-01-27T12:09:36;101936.78;;;3.20;100.00
55068;BME280;40965;52.368;9.712;2023-01-27T12:14:51;101930.41;;;3.33;100.00
55068;BME280;40965;52.368;9.712;2023-01-27T12:17:27;101925.56;;;3.41;100.00
55068;BME280;40965;52.368;9.712;2023-01-27T12:19:58;101938.75;;;3.47;100.00
55068;BME280;40965;52.368;9.712;2023-01-27T12:22:31;101929.91;;;3.42;100.00
55068;BME280;40965;52.368;9.712;2023-01-27T12:25:02;101926.75;;;3.28;100.00
55068;BME280;40965;52.368;9.712;2023-01-27T12:27:49;101916.13;;;3.22;100.00
55068;BME280;40965;52.368;9.712;2023-01-27T12:30:29;101929.13;;;3.23;100.00
55068;BME280;40965;52.368;9.712;2023-01-27T12:32:58;101925.63;;;3.21;100.00
55068;BME280;40965;52.368;9.712;2023-01-27T12:35:33;101923.19;;;3.26;100.00
55068;BME280;40965;52.368;9.712;2023-01-27T12:38:19;101919.47;;;3.19;100.00
55068;BME280;40965;52.368;9.712;2023-01-27T12:41:03;101920.00;;;3.10;100.00
55068;BME280;40965;52.368;9.712;2023-01-27T12:43:56;101922.66;;;3.12;100.00
55068;BME280;40965;52.368;9.712;2023-01-27T12:47:02;101921.00;;;3.14;100.00
55068;BME280;40965;52.368;9.712;2023-01-27T12:49:41;101922.69;;;3.13;100.00
55068;BME280;40965;52.368;9.712;2023-01-27T12:52:20;101921.19;;;3.19;100.00
55068;BME280;40965;52.368;9.712;2023-01-27T12:54:49;101919.56;;;3.21;100.00
55068;BME280;40965;52.368;9.712;2023-01-27T12:57:20;101916.06;;;3.20;100.00
55068;BME280;40965;52.368;9.712;2023-01-27T12:59:54;101916.06;;;3.20;100.00
55068;BME280;40965;52.368;9.712;2023-01-27T13:02:24;101914.19;;;3.16;100.00
55068;BME280;40965;52.368;9.712;2023-01-27T13:05:01;101917.47;;;3.12;100.00
55068;BME280;40965;52.368;9.712;2023-01-27T13:07:43;101911.97;;;3.04;100.00
55068;BME280;40965;52.368;9.712;2023-01-27T13:10:19;101912.41;;;2.94;100.00
55068;BME280;40965;52.368;9.712;2023-01-27T13:12:49;101915.63;;;2.88;100.00
55068;BME280;40965;52.368;9.712;2023-01-27T13:15:20;101916.69;;;2.93;100.00
55068;BME280;40965;52.368;9.712;2023-01-27T13:17:49;101919.41;;;2.96;100.00
55068;BME280;40965;52.368;9.712;2023-01-27T13:20:25;101924.69;;;3.00;100.00
55068;BME280;40965;52.368;9.712;2023-01-27T13:23:04;101920.16;;;2.94;100.00
55068;BME280;40965;52.368;9.712;2023-01-27T13:25:42;101932.00;;;2.89;100.00
55068;BME280;40965;52.368;9.712;2023-01-27T13:28:17;101923.91;;;2.81;100.00
55068;BME280;40965;52.368;9.712;2023-01-27T13:30:53;101926.44;;;2.79;100.00
55068;BME280;40965;52.368;9.712;2023-01-27T13:33:36;101927.38;;;2.81;100.00
55068;BME280;40965;52.368;9.712;2023-01-27T13:36:54;101922.28;;;2.83;100.00
55068;BME280;40965;52.368;9.712;2023-01-27T13:39:51;101929.97;;;2.81;100.00
55068;BME280;40965;52.368;9.712;2023-01-27T13:42:40;101933.28;;;2.79;100.00
55068;BME280;40965;52.368;9.712;2023-01-27T13:45:20;101928.13;;;2.79;100.00
55068;BME280;40965;52.368;9.712;2023-01-27T13:47:55;101932.53;;;2.81;100.00
55068;BME280;40965;52.368;9.712;2023-01-27T13:50:35;101936.78;;;2.79;100.00
55068;BME280;40965;52.368;9.712;2023-01-27T13:53:09;101940.94;;;2.76;100.00
55068;BME280;40965;52.368;9.712;2023-01-27T13:56:46;101941.75;;;2.75;100.00